Terminal Aerodrome Forecast
Issued by NWS Houston/Galveston, TX

Home | Current Version | Previous Version | Text Only | Print | Product List | Glossary On
Versions: 1 2 3 4 5 6 7 8 9 10 11 12 13 14 15 16 17 18 19 20 21 22 23 24
000
FTUS44 KHGX 101427 AAA
TAFGLS
TAF AMD
KGLS 101427Z 1014/1112 04012KT P6SM BKN070
     FM101800 07013KT P6SM SCT035 BKN070
     FM110400 12012KT P6SM SCT020 BKN035=

USA.gov is the U.S. government's official web portal to all federal, state and local government web resources and services.